sensor_id;sensor_type;location;lat;lon;timestamp;P1;durP1;ratioP1;P2;durP2;ratioP2
70228;SDS011;57617;51.988;5.854;2023-03-24T00:02:15;8.35;;;2.65;;
70228;SDS011;57617;51.988;5.854;2023-03-24T00:04:41;8.18;;;2.90;;
70228;SDS011;57617;51.988;5.854;2023-03-24T00:07:09;8.35;;;2.90;;
70228;SDS011;57617;51.988;5.854;2023-03-24T00:09:39;6.25;;;2.63;;
70228;SDS011;57617;51.988;5.854;2023-03-24T00:12:05;8.60;;;2.70;;
70228;SDS011;57617;51.988;5.854;2023-03-24T00:14:31;7.95;;;3.15;;
70228;SDS011;57617;51.988;5.854;2023-03-24T00:16:56;7.70;;;2.78;;
70228;SDS011;57617;51.988;5.854;2023-03-24T00:19:23;6.88;;;2.63;;
70228;SDS011;57617;51.988;5.854;2023-03-24T00:21:49;7.32;;;2.78;;
70228;SDS011;57617;51.988;5.854;2023-03-24T00:24:14;7.65;;;2.85;;
70228;SDS011;57617;51.988;5.854;2023-03-24T00:26:39;7.10;;;3.00;;
70228;SDS011;57617;51.988;5.854;2023-03-24T00:29:06;6.40;;;2.92;;
70228;SDS011;57617;51.988;5.854;2023-03-24T00:31:35;8.15;;;3.03;;
70228;SDS011;57617;51.988;5.854;2023-03-24T00:34:03;8.43;;;2.90;;
70228;SDS011;57617;51.988;5.854;2023-03-24T00:36:31;8.60;;;3.15;;
70228;SDS011;57617;51.988;5.854;2023-03-24T00:38:56;9.45;;;3.10;;
70228;SDS011;57617;51.988;5.854;2023-03-24T00:41:22;7.35;;;3.30;;
70228;SDS011;57617;51.988;5.854;2023-03-24T00:43:50;8.30;;;3.33;;
70228;SDS011;57617;51.988;5.854;2023-03-24T00:46:17;8.20;;;3.25;;
70228;SDS011;57617;51.988;5.854;2023-03-24T00:48:52;8.07;;;3.10;;
70228;SDS011;57617;51.988;5.854;2023-03-24T00:51:25;8.77;;;3.30;;
70228;SDS011;57617;51.988;5.854;2023-03-24T00:53:55;7.25;;;3.13;;
70228;SDS011;57617;51.988;5.854;2023-03-24T00:56:21;7.32;;;3.58;;
70228;SDS011;57617;51.988;5.854;2023-03-24T00:58:48;10.00;;;3.20;;
70228;SDS011;57617;51.988;5.854;2023-03-24T01:01:13;8.77;;;3.30;;
70228;SDS011;57617;51.988;5.854;2023-03-24T01:03:38;9.68;;;3.80;;
70228;SDS011;57617;51.988;5.854;2023-03-24T01:06:12;7.70;;;3.10;;
70228;SDS011;57617;51.988;5.854;2023-03-24T01:08:37;6.80;;;3.40;;
70228;SDS011;57617;51.988;5.854;2023-03-24T01:11:03;6.47;;;3.35;;
70228;SDS011;57617;51.988;5.854;2023-03-24T01:13:30;7.72;;;3.30;;
70228;SDS011;57617;51.988;5.854;2023-03-24T01:15:55;8.65;;;3.42;;
70228;SDS011;57617;51.988;5.854;2023-03-24T01:18:21;6.47;;;3.00;;
70228;SDS011;57617;51.988;5.854;2023-03-24T01:20:48;6.25;;;3.10;;
70228;SDS011;57617;51.988;5.854;2023-03-24T01:23:15;6.13;;;3.45;;
70228;SDS011;57617;51.988;5.854;2023-03-24T01:25:48;6.40;;;3.30;;
70228;SDS011;57617;51.988;5.854;2023-03-24T01:28:15;5.63;;;3.10;;
70228;SDS011;57617;51.988;5.854;2023-03-24T01:30:47;6.32;;;3.40;;
70228;SDS011;57617;51.988;5.854;2023-03-24T01:33:12;7.28;;;3.10;;
70228;SDS011;57617;51.988;5.854;2023-03-24T01:35:38;6.72;;;3.20;;
70228;SDS011;57617;51.988;5.854;2023-03-24T01:38:06;7.43;;;3.28;;
70228;SDS011;57617;51.988;5.854;2023-03-24T01:40:35;9.48;;;3.35;;
70228;SDS011;57617;51.988;5.854;2023-03-24T01:43:02;6.22;;;3.10;;
70228;SDS011;57617;51.988;5.854;2023-03-24T01:51:44;7.40;;;3.25;;
70228;SDS011;57617;51.988;5.854;2023-03-24T01:54:14;7.32;;;3.28;;
70228;SDS011;57617;51.988;5.854;2023-03-24T01:56:48;5.85;;;2.92;;
70228;SDS011;57617;51.988;5.854;2023-03-24T01:59:18;8.57;;;3.33;;
70228;SDS011;57617;51.988;5.854;2023-03-24T02:01:47;6.32;;;3.30;;
70228;SDS011;57617;51.988;5.854;2023-03-24T02:04:12;5.57;;;3.17;;
70228;SDS011;57617;51.988;5.854;2023-03-24T02:06:40;5.75;;;3.20;;
70228;SDS011;57617;51.988;5.854;2023-03-24T02:09:08;6.13;;;3.22;;
70228;SDS011;57617;51.988;5.854;2023-03-24T02:11:35;7.28;;;2.92;;
70228;SDS011;57617;51.988;5.854;2023-03-24T02:14:02;6.85;;;3.15;;
70228;SDS011;57617;51.988;5.854;2023-03-24T02:30:46;4.95;;;2.90;;
70228;SDS011;57617;51.988;5.854;2023-03-24T02:42:11;5.50;;;3.40;;
70228;SDS011;57617;51.988;5.854;2023-03-24T02:44:45;7.78;;;3.55;;
70228;SDS011;57617;51.988;5.854;2023-03-24T02:55:14;4.68;;;3.28;;
70228;SDS011;57617;51.988;5.854;2023-03-24T02:58:04;6.95;;;3.50;;
70228;SDS011;57617;51.988;5.854;2023-03-24T03:00:56;6.63;;;3.20;;
70228;SDS011;57617;51.988;5.854;2023-03-24T03:03:31;7.18;;;3.30;;
70228;SDS011;57617;51.988;5.854;2023-03-24T03:08:28;9.45;;;3.22;;
70228;SDS011;57617;51.988;5.854;2023-03-24T03:10:56;10.27;;;3.50;;
70228;SDS011;57617;51.988;5.854;2023-03-24T03:13:47;4.93;;;2.63;;
70228;SDS011;57617;51.988;5.854;2023-03-24T03:16:30;4.05;;;2.30;;
70228;SDS011;57617;51.988;5.854;2023-03-24T03:19:04;5.15;;;1.90;;
70228;SDS011;57617;51.988;5.854;2023-03-24T03:21:36;5.18;;;1.70;;
70228;SDS011;57617;51.988;5.854;2023-03-24T03:24:09;3.92;;;1.25;;
70228;SDS011;57617;51.988;5.854;2023-03-24T03:26:42;4.50;;;1.38;;
70228;SDS011;57617;51.988;5.854;2023-03-24T03:29:16;3.80;;;1.40;;
70228;SDS011;57617;51.988;5.854;2023-03-24T03:31:50;4.03;;;1.23;;
70228;SDS011;57617;51.988;5.854;2023-03-24T03:37:12;6.47;;;1.30;;
70228;SDS011;57617;51.988;5.854;2023-03-24T03:39:48;6.45;;;1.30;;
70228;SDS011;57617;51.988;5.854;2023-03-24T03:42:18;3.42;;;1.20;;
70228;SDS011;57617;51.988;5.854;2023-03-24T03:44:44;2.67;;;1.17;;
70228;SDS011;57617;51.988;5.854;2023-03-24T03:47:10;6.03;;;1.20;;
70228;SDS011;57617;51.988;5.854;2023-03-24T03:49:36;6.15;;;1.55;;
70228;SDS011;57617;51.988;5.854;2023-03-24T03:52:02;4.38;;;1.02;;
70228;SDS011;57617;51.988;5.854;2023-03-24T03:54:28;2.95;;;1.00;;
70228;SDS011;57617;51.988;5.854;2023-03-24T03:56:55;4.82;;;1.08;;
70228;SDS011;57617;51.988;5.854;2023-03-24T03:59:26;4.05;;;0.90;;
70228;SDS011;57617;51.988;5.854;2023-03-24T04:01:51;4.22;;;0.90;;
70228;SDS011;57617;51.988;5.854;2023-03-24T04:07:12;3.08;;;1.10;;
70228;SDS011;57617;51.988;5.854;2023-03-24T04:20:41;5.15;;;1.20;;
70228;SDS011;57617;51.988;5.854;2023-03-24T04:26:30;6.15;;;1.15;;
70228;SDS011;57617;51.988;5.854;2023-03-24T04:29:19;14.90;;;1.70;;
70228;SDS011;57617;51.988;5.854;2023-03-24T04:31:57;6.78;;;1.50;;
70228;SDS011;57617;51.988;5.854;2023-03-24T04:34:36;9.02;;;1.60;;
70228;SDS011;57617;51.988;5.854;2023-03-24T04:37:07;5.07;;;1.52;;
70228;SDS011;57617;51.988;5.854;2023-03-24T04:39:38;6.22;;;1.23;;
70228;SDS011;57617;51.988;5.854;2023-03-24T04:42:07;9.02;;;2.10;;
70228;SDS011;57617;51.988;5.854;2023-03-24T04:44:35;10.75;;;2.08;;
70228;SDS011;57617;51.988;5.854;2023-03-24T04:47:01;14.48;;;2.00;;
70228;SDS011;57617;51.988;5.854;2023-03-24T04:49:28;13.05;;;1.95;;
70228;SDS011;57617;51.988;5.854;2023-03-24T04:51:54;11.07;;;1.63;;
70228;SDS011;57617;51.988;5.854;2023-03-24T04:54:20;12.57;;;2.00;;
70228;SDS011;57617;51.988;5.854;2023-03-24T04:59:18;18.42;;;3.10;;
70228;SDS011;57617;51.988;5.854;2023-03-24T05:01:44;16.38;;;2.38;;
70228;SDS011;57617;51.988;5.854;2023-03-24T05:04:19;12.85;;;1.92;;
70228;SDS011;57617;51.988;5.854;2023-03-24T05:06:45;16.02;;;2.17;;
70228;SDS011;57617;51.988;5.854;2023-03-24T05:09:11;14.25;;;1.70;;
70228;SDS011;57617;51.988;5.854;2023-03-24T05:11:38;18.42;;;2.05;;
70228;SDS011;57617;51.988;5.854;2023-03-24T05:14:04;19.08;;;1.92;;
70228;SDS011;57617;51.988;5.854;2023-03-24T05:16:29;14.60;;;2.08;;
70228;SDS011;57617;51.988;5.854;2023-03-24T05:18:54;11.77;;;1.80;;
70228;SDS011;57617;51.988;5.854;2023-03-24T05:21:21;13.65;;;2.22;;
70228;SDS011;57617;51.988;5.854;2023-03-24T05:23:46;11.45;;;2.00;;
70228;SDS011;57617;51.988;5.854;2023-03-24T05:26:11;13.88;;;2.42;;
70228;SDS011;57617;51.988;5.854;2023-03-24T05:28:36;11.48;;;1.80;;
70228;SDS011;57617;51.988;5.854;2023-03-24T05:31:02;12.43;;;1.90;;
70228;SDS011;57617;51.988;5.854;2023-03-24T05:33:27;13.75;;;2.17;;
70228;SDS011;57617;51.988;5.854;2023-03-24T05:35:52;19.17;;;2.42;;
70228;SDS011;57617;51.988;5.854;2023-03-24T05:38:18;14.13;;;2.40;;
70228;SDS011;57617;51.988;5.854;2023-03-24T05:40:43;13.52;;;2.30;;
70228;SDS011;57617;51.988;5.854;2023-03-24T05:43:08;17.23;;;3.15;;
70228;SDS011;57617;51.988;5.854;2023-03-24T05:45:36;12.20;;;2.65;;
70228;SDS011;57617;51.988;5.854;2023-03-24T05:48:02;18.55;;;3.17;;
70228;SDS011;57617;51.988;5.854;2023-03-24T05:50:27;15.57;;;3.20;;
70228;SDS011;57617;51.988;5.854;2023-03-24T05:52:52;15.95;;;3.25;;
70228;SDS011;57617;51.988;5.854;2023-03-24T05:55:18;22.38;;;3.20;;
70228;SDS011;57617;51.988;5.854;2023-03-24T05:57:43;15.98;;;3.35;;
70228;SDS011;57617;51.988;5.854;2023-03-24T06:00:10;20.90;;;3.10;;
70228;SDS011;57617;51.988;5.854;2023-03-24T06:02:41;18.92;;;3.92;;
70228;SDS011;57617;51.988;5.854;2023-03-24T06:05:07;18.35;;;3.65;;
70228;SDS011;57617;51.988;5.854;2023-03-24T06:07:34;13.85;;;2.90;;
70228;SDS011;57617;51.988;5.854;2023-03-24T06:10:00;25.15;;;3.33;;
70228;SDS011;57617;51.988;5.854;2023-03-24T06:12:27;15.93;;;3.17;;
70228;SDS011;57617;51.988;5.854;2023-03-24T06:14:54;19.35;;;3.38;;
70228;SDS011;57617;51.988;5.854;2023-03-24T06:17:19;19.73;;;3.30;;
70228;SDS011;57617;51.988;5.854;2023-03-24T06:19:45;16.95;;;3.55;;
70228;SDS011;57617;51.988;5.854;2023-03-24T06:22:16;19.77;;;3.20;;
70228;SDS011;57617;51.988;5.854;2023-03-24T06:24:42;19.50;;;3.33;;
70228;SDS011;57617;51.988;5.854;2023-03-24T06:27:09;18.00;;;4.00;;
70228;SDS011;57617;51.988;5.854;2023-03-24T06:29:38;15.02;;;3.20;;
70228;SDS011;57617;51.988;5.854;2023-03-24T06:32:06;8.88;;;2.92;;
70228;SDS011;57617;51.988;5.854;2023-03-24T06:34:32;15.15;;;3.50;;
70228;SDS011;57617;51.988;5.854;2023-03-24T06:36:57;22.83;;;3.65;;
70228;SDS011;57617;51.988;5.854;2023-03-24T06:39:22;19.55;;;3.60;;
70228;SDS011;57617;51.988;5.854;2023-03-24T06:41:48;15.10;;;3.05;;
70228;SDS011;57617;51.988;5.854;2023-03-24T06:44:13;13.38;;;3.38;;
70228;SDS011;57617;51.988;5.854;2023-03-24T06:46:38;15.60;;;3.00;;
70228;SDS011;57617;51.988;5.854;2023-03-24T06:49:04;15.50;;;3.83;;
70228;SDS011;57617;51.988;5.854;2023-03-24T06:51:30;13.30;;;3.00;;
70228;SDS011;57617;51.988;5.854;2023-03-24T06:53:55;18.40;;;2.90;;
70228;SDS011;57617;51.988;5.854;2023-03-24T06:56:20;13.32;;;2.95;;
70228;SDS011;57617;51.988;5.854;2023-03-24T06:58:46;11.73;;;2.85;;
70228;SDS011;57617;51.988;5.854;2023-03-24T07:01:12;23.92;;;3.85;;
70228;SDS011;57617;51.988;5.854;2023-03-24T07:03:38;11.38;;;3.05;;
70228;SDS011;57617;51.988;5.854;2023-03-24T07:06:05;16.80;;;3.22;;
70228;SDS011;57617;51.988;5.854;2023-03-24T07:08:31;24.63;;;2.75;;
70228;SDS011;57617;51.988;5.854;2023-03-24T07:10:57;20.58;;;3.20;;
70228;SDS011;57617;51.988;5.854;2023-03-24T07:13:23;18.40;;;2.92;;
70228;SDS011;57617;51.988;5.854;2023-03-24T07:15:48;14.10;;;3.25;;
70228;SDS011;57617;51.988;5.854;2023-03-24T07:18:14;13.13;;;3.28;;
70228;SDS011;57617;51.988;5.854;2023-03-24T07:20:39;15.85;;;2.83;;
70228;SDS011;57617;51.988;5.854;2023-03-24T07:23:05;12.30;;;3.63;;
70228;SDS011;57617;51.988;5.854;2023-03-24T07:25:30;16.08;;;2.83;;
70228;SDS011;57617;51.988;5.854;2023-03-24T07:27:56;12.85;;;3.13;;
70228;SDS011;57617;51.988;5.854;2023-03-24T07:30:21;19.10;;;3.00;;
70228;SDS011;57617;51.988;5.854;2023-03-24T07:32:47;11.88;;;2.90;;
70228;SDS011;57617;51.988;5.854;2023-03-24T07:35:13;15.45;;;2.80;;
70228;SDS011;57617;51.988;5.854;2023-03-24T07:37:40;12.18;;;3.20;;
70228;SDS011;57617;51.988;5.854;2023-03-24T07:40:06;14.40;;;3.92;;
70228;SDS011;57617;51.988;5.854;2023-03-24T07:42:36;17.70;;;4.43;;
70228;SDS011;57617;51.988;5.854;2023-03-24T07:45:06;16.75;;;3.17;;
70228;SDS011;57617;51.988;5.854;2023-03-24T07:47:33;16.02;;;4.05;;
70228;SDS011;57617;51.988;5.854;2023-03-24T07:49:59;16.10;;;3.85;;
70228;SDS011;57617;51.988;5.854;2023-03-24T07:52:25;21.45;;;3.92;;
70228;SDS011;57617;51.988;5.854;2023-03-24T07:54:50;14.80;;;3.47;;
70228;SDS011;57617;51.988;5.854;2023-03-24T07:57:15;11.20;;;3.53;;
70228;SDS011;57617;51.988;5.854;2023-03-24T07:59:41;16.05;;;3.28;;
70228;SDS011;57617;51.988;5.854;2023-03-24T08:02:10;14.45;;;2.97;;
70228;SDS011;57617;51.988;5.854;2023-03-24T08:04:41;14.35;;;3.05;;
70228;SDS011;57617;51.988;5.854;2023-03-24T08:07:06;11.68;;;3.25;;
70228;SDS011;57617;51.988;5.854;2023-03-24T08:09:32;12.70;;;3.97;;
70228;SDS011;57617;51.988;5.854;2023-03-24T08:11:58;17.63;;;3.05;;
70228;SDS011;57617;51.988;5.854;2023-03-24T08:14:23;17.92;;;3.40;;
70228;SDS011;57617;51.988;5.854;2023-03-24T08:16:49;11.30;;;2.47;;
70228;SDS011;57617;51.988;5.854;2023-03-24T08:19:14;12.32;;;2.95;;
70228;SDS011;57617;51.988;5.854;2023-03-24T08:21:40;13.23;;;2.92;;
70228;SDS011;57617;51.988;5.854;2023-03-24T08:24:05;15.02;;;3.22;;
70228;SDS011;57617;51.988;5.854;2023-03-24T08:26:31;16.45;;;2.83;;
70228;SDS011;57617;51.988;5.854;2023-03-24T08:28:59;13.65;;;2.88;;
70228;SDS011;57617;51.988;5.854;2023-03-24T08:31:29;10.88;;;2.92;;
70228;SDS011;57617;51.988;5.854;2023-03-24T08:33:59;16.67;;;2.90;;
70228;SDS011;57617;51.988;5.854;2023-03-24T08:36:24;13.82;;;2.85;;
70228;SDS011;57617;51.988;5.854;2023-03-24T08:38:51;12.48;;;2.85;;
70228;SDS011;57617;51.988;5.854;2023-03-24T08:41:18;13.30;;;3.42;;
70228;SDS011;57617;51.988;5.854;2023-03-24T08:43:43;13.18;;;3.22;;
70228;SDS011;57617;51.988;5.854;2023-03-24T08:46:09;10.98;;;2.80;;
70228;SDS011;57617;51.988;5.854;2023-03-24T08:48:34;13.00;;;3.10;;
70228;SDS011;57617;51.988;5.854;2023-03-24T08:51:08;12.48;;;2.88;;
70228;SDS011;57617;51.988;5.854;2023-03-24T08:53:34;10.70;;;2.65;;
70228;SDS011;57617;51.988;5.854;2023-03-24T08:56:00;13.02;;;3.55;;
70228;SDS011;57617;51.988;5.854;2023-03-24T08:58:25;14.32;;;2.85;;
70228;SDS011;57617;51.988;5.854;2023-03-24T09:00:50;12.13;;;2.83;;
70228;SDS011;57617;51.988;5.854;2023-03-24T09:03:17;14.05;;;2.90;;
70228;SDS011;57617;51.988;5.854;2023-03-24T09:05:46;14.15;;;3.15;;
70228;SDS011;57617;51.988;5.854;2023-03-24T09:08:12;18.50;;;3.63;;
70228;SDS011;57617;51.988;5.854;2023-03-24T09:10:39;14.10;;;3.15;;
70228;SDS011;57617;51.988;5.854;2023-03-24T09:13:05;13.02;;;2.95;;
70228;SDS011;57617;51.988;5.854;2023-03-24T09:15:31;12.68;;;3.03;;
70228;SDS011;57617;51.988;5.854;2023-03-24T09:17:56;13.63;;;2.90;;
70228;SDS011;57617;51.988;5.854;2023-03-24T09:20:22;11.57;;;2.70;;
70228;SDS011;57617;51.988;5.854;2023-03-24T09:22:47;13.57;;;2.55;;
70228;SDS011;57617;51.988;5.854;2023-03-24T09:25:16;11.07;;;2.70;;
70228;SDS011;57617;51.988;5.854;2023-03-24T09:27:43;21.20;;;2.97;;
70228;SDS011;57617;51.988;5.854;2023-03-24T09:30:09;15.43;;;2.55;;
70228;SDS011;57617;51.988;5.854;2023-03-24T09:32:35;9.73;;;2.42;;
70228;SDS011;57617;51.988;5.854;2023-03-24T09:35:01;14.13;;;2.67;;
70228;SDS011;57617;51.988;5.854;2023-03-24T09:37:30;11.07;;;2.22;;
70228;SDS011;57617;51.988;5.854;2023-03-24T09:39:56;13.77;;;2.58;;
70228;SDS011;57617;51.988;5.854;2023-03-24T09:42:24;10.18;;;2.38;;
70228;SDS011;57617;51.988;5.854;2023-03-24T09:44:56;9.38;;;2.42;;
70228;SDS011;57617;51.988;5.854;2023-03-24T09:50:03;16.05;;;2.50;;
70228;SDS011;57617;51.988;5.854;2023-03-24T09:52:33;9.77;;;2.65;;
70228;SDS011;57617;51.988;5.854;2023-03-24T09:55:03;12.27;;;2.13;;
70228;SDS011;57617;51.988;5.854;2023-03-24T09:57:34;10.10;;;2.45;;
70228;SDS011;57617;51.988;5.854;2023-03-24T10:00:14;11.77;;;2.30;;
70228;SDS011;57617;51.988;5.854;2023-03-24T10:02:45;7.80;;;2.08;;
70228;SDS011;57617;51.988;5.854;2023-03-24T10:05:11;9.38;;;2.08;;
70228;SDS011;57617;51.988;5.854;2023-03-24T10:07:46;9.90;;;2.20;;
70228;SDS011;57617;51.988;5.854;2023-03-24T10:10:28;11.75;;;2.10;;
70228;SDS011;57617;51.988;5.854;2023-03-24T10:13:08;9.40;;;1.90;;
70228;SDS011;57617;51.988;5.854;2023-03-24T10:15:47;9.07;;;2.28;;
70228;SDS011;57617;51.988;5.854;2023-03-24T10:18:25;11.52;;;2.33;;
70228;SDS011;57617;51.988;5.854;2023-03-24T10:21:02;7.25;;;2.10;;
70228;SDS011;57617;51.988;5.854;2023-03-24T10:26:33;8.65;;;2.40;;
70228;SDS011;57617;51.988;5.854;2023-03-24T10:31:27;16.50;;;2.40;;
70228;SDS011;57617;51.988;5.854;2023-03-24T10:33:54;7.97;;;2.17;;
70228;SDS011;57617;51.988;5.854;2023-03-24T10:36:20;12.52;;;2.38;;
70228;SDS011;57617;51.988;5.854;2023-03-24T10:38:47;12.00;;;2.20;;
70228;SDS011;57617;51.988;5.854;2023-03-24T10:41:14;11.05;;;2.58;;
70228;SDS011;57617;51.988;5.854;2023-03-24T10:43:43;11.38;;;2.03;;
70228;SDS011;57617;51.988;5.854;2023-03-24T10:46:10;7.72;;;2.28;;
70228;SDS011;57617;51.988;5.854;2023-03-24T10:51:03;9.93;;;2.42;;
70228;SDS011;57617;51.988;5.854;2023-03-24T10:53:30;10.25;;;2.20;;
70228;SDS011;57617;51.988;5.854;2023-03-24T10:55:57;9.95;;;2.17;;
70228;SDS011;57617;51.988;5.854;2023-03-24T11:01:25;14.60;;;2.70;;
70228;SDS011;57617;51.988;5.854;2023-03-24T11:03:58;12.85;;;2.05;;
70228;SDS011;57617;51.988;5.854;2023-03-24T11:06:25;11.82;;;2.05;;
70228;SDS011;57617;51.988;5.854;2023-03-24T11:11:51;11.23;;;2.00;;
70228;SDS011;57617;51.988;5.854;2023-03-24T11:14:24;8.23;;;2.20;;
70228;SDS011;57617;51.988;5.854;2023-03-24T11:16:52;13.07;;;2.70;;
70228;SDS011;57617;51.988;5.854;2023-03-24T11:19:26;10.63;;;2.92;;
70228;SDS011;57617;51.988;5.854;2023-03-24T11:21:52;8.57;;;2.60;;
70228;SDS011;57617;51.988;5.854;2023-03-24T11:24:23;13.25;;;2.35;;
70228;SDS011;57617;51.988;5.854;2023-03-24T11:27:00;9.25;;;1.92;;
70228;SDS011;57617;51.988;5.854;2023-03-24T11:29:27;9.50;;;2.30;;
70228;SDS011;57617;51.988;5.854;2023-03-24T11:31:58;12.90;;;2.30;;
70228;SDS011;57617;51.988;5.854;2023-03-24T11:34:32;9.13;;;2.03;;
70228;SDS011;57617;51.988;5.854;2023-03-24T11:37:21;11.02;;;2.40;;
70228;SDS011;57617;51.988;5.854;2023-03-24T11:40:04;10.40;;;2.30;;
70228;SDS011;57617;51.988;5.854;2023-03-24T11:47:47;5.35;;;1.00;;
70228;SDS011;57617;51.988;5.854;2023-03-24T11:50:17;6.65;;;1.30;;
70228;SDS011;57617;51.988;5.854;2023-03-24T11:52:50;18.60;;;1.40;;
70228;SDS011;57617;51.988;5.854;2023-03-24T11:55:36;9.07;;;1.42;;
70228;SDS011;57617;51.988;5.854;2023-03-24T11:58:12;8.68;;;1.83;;
70228;SDS011;57617;51.988;5.854;2023-03-24T12:03:24;8.50;;;2.00;;
70228;SDS011;57617;51.988;5.854;2023-03-24T12:06:15;6.95;;;1.90;;
70228;SDS011;57617;51.988;5.854;2023-03-24T12:09:12;7.90;;;2.00;;
70228;SDS011;57617;51.988;5.854;2023-03-24T12:11:49;10.52;;;3.03;;
70228;SDS011;57617;51.988;5.854;2023-03-24T12:14:58;13.90;;;3.80;;
70228;SDS011;57617;51.988;5.854;2023-03-24T12:21:03;6.50;;;1.95;;
70228;SDS011;57617;51.988;5.854;2023-03-24T12:34:46;5.18;;;1.20;;
70228;SDS011;57617;51.988;5.854;2023-03-24T12:37:24;6.75;;;1.30;;
70228;SDS011;57617;51.988;5.854;2023-03-24T12:39:58;5.75;;;1.40;;
70228;SDS011;57617;51.988;5.854;2023-03-24T12:42:39;6.82;;;1.10;;
70228;SDS011;57617;51.988;5.854;2023-03-24T13:00:54;7.35;;;1.77;;
70228;SDS011;57617;51.988;5.854;2023-03-24T13:03:29;6.47;;;1.80;;
70228;SDS011;57617;51.988;5.854;2023-03-24T13:06:03;12.32;;;2.58;;
70228;SDS011;57617;51.988;5.854;2023-03-24T13:08:37;10.32;;;2.10;;
70228;SDS011;57617;51.988;5.854;2023-03-24T13:11:09;8.18;;;2.50;;
70228;SDS011;57617;51.988;5.854;2023-03-24T13:13:39;9.90;;;2.83;;
70228;SDS011;57617;51.988;5.854;2023-03-24T13:16:12;11.30;;;3.47;;
70228;SDS011;57617;51.988;5.854;2023-03-24T13:18:46;9.02;;;3.30;;
70228;SDS011;57617;51.988;5.854;2023-03-24T13:21:17;10.27;;;3.70;;
70228;SDS011;57617;51.988;5.854;2023-03-24T13:23:50;7.18;;;3.33;;
70228;SDS011;57617;51.988;5.854;2023-03-24T13:26:40;15.27;;;3.80;;
70228;SDS011;57617;51.988;5.854;2023-03-24T13:34:48;10.57;;;3.10;;
70228;SDS011;57617;51.988;5.854;2023-03-24T13:37:21;6.60;;;1.77;;
70228;SDS011;57617;51.988;5.854;2023-03-24T13:39:52;6.93;;;1.55;;
70228;SDS011;57617;51.988;5.854;2023-03-24T13:42:34;7.47;;;1.60;;
70228;SDS011;57617;51.988;5.854;2023-03-24T13:45:06;7.97;;;2.10;;
70228;SDS011;57617;51.988;5.854;2023-03-24T13:47:47;8.07;;;1.80;;
70228;SDS011;57617;51.988;5.854;2023-03-24T13:50:14;4.22;;;1.45;;
70228;SDS011;57617;51.988;5.854;2023-03-24T13:52:44;4.25;;;1.42;;
70228;SDS011;57617;51.988;5.854;2023-03-24T13:55:14;6.47;;;1.35;;
70228;SDS011;57617;51.988;5.854;2023-03-24T13:57:56;5.78;;;1.38;;
70228;SDS011;57617;51.988;5.854;2023-03-24T14:00:34;4.00;;;1.13;;
70228;SDS011;57617;51.988;5.854;2023-03-24T14:04:11;4.63;;;1.35;;
70228;SDS011;57617;51.988;5.854;2023-03-24T14:06:50;5.50;;;1.40;;
70228;SDS011;57617;51.988;5.854;2023-03-24T14:09:19;2.80;;;1.10;;
70228;SDS011;57617;51.988;5.854;2023-03-24T14:12:05;10.80;;;1.40;;
70228;SDS011;57617;51.988;5.854;2023-03-24T14:17:42;8.77;;;2.70;;
70228;SDS011;57617;51.988;5.854;2023-03-24T14:20:10;3.05;;;1.73;;
70228;SDS011;57617;51.988;5.854;2023-03-24T14:22:40;3.53;;;1.60;;
70228;SDS011;57617;51.988;5.854;2023-03-24T14:27:40;8.00;;;1.77;;
70228;SDS011;57617;51.988;5.854;2023-03-24T14:30:27;6.07;;;1.73;;
70228;SDS011;57617;51.988;5.854;2023-03-24T14:32:58;5.93;;;2.10;;
70228;SDS011;57617;51.988;5.854;2023-03-24T14:40:39;10.10;;;2.40;;
70228;SDS011;57617;51.988;5.854;2023-03-24T14:43:23;10.00;;;2.70;;
70228;SDS011;57617;51.988;5.854;2023-03-24T14:45:59;4.30;;;2.35;;
70228;SDS011;57617;51.988;5.854;2023-03-24T14:51:13;6.22;;;1.80;;
70228;SDS011;57617;51.988;5.854;2023-03-24T14:53:49;5.75;;;1.60;;
70228;SDS011;57617;51.988;5.854;2023-03-24T14:56:15;9.23;;;1.55;;
70228;SDS011;57617;51.988;5.854;2023-03-24T14:58:42;4.85;;;1.15;;
70228;SDS011;57617;51.988;5.854;2023-03-24T15:01:12;5.07;;;0.98;;
70228;SDS011;57617;51.988;5.854;2023-03-24T15:03:41;2.30;;;0.90;;
70228;SDS011;57617;51.988;5.854;2023-03-24T15:06:18;3.50;;;1.00;;
70228;SDS011;57617;51.988;5.854;2023-03-24T15:08:55;2.67;;;1.05;;
70228;SDS011;57617;51.988;5.854;2023-03-24T15:11:38;3.15;;;0.80;;
70228;SDS011;57617;51.988;5.854;2023-03-24T15:14:05;3.65;;;0.93;;
70228;SDS011;57617;51.988;5.854;2023-03-24T15:16:38;2.50;;;0.70;;
70228;SDS011;57617;51.988;5.854;2023-03-24T15:21:46;2.25;;;0.68;;
70228;SDS011;57617;51.988;5.854;2023-03-24T15:26:45;2.83;;;0.70;;
70228;SDS011;57617;51.988;5.854;2023-03-24T15:29:10;2.63;;;0.80;;
70228;SDS011;57617;51.988;5.854;2023-03-24T15:31:36;4.45;;;1.20;;
70228;SDS011;57617;51.988;5.854;2023-03-24T15:34:05;5.03;;;1.00;;
70228;SDS011;57617;51.988;5.854;2023-03-24T15:36:33;7.85;;;1.17;;
70228;SDS011;57617;51.988;5.854;2023-03-24T15:39:14;6.70;;;1.33;;
70228;SDS011;57617;51.988;5.854;2023-03-24T15:41:42;6.60;;;1.00;;
70228;SDS011;57617;51.988;5.854;2023-03-24T15:44:09;5.93;;;1.50;;
70228;SDS011;57617;51.988;5.854;2023-03-24T15:46:43;7.32;;;1.23;;
70228;SDS011;57617;51.988;5.854;2023-03-24T15:49:15;7.78;;;1.33;;
70228;SDS011;57617;51.988;5.854;2023-03-24T15:52:22;9.70;;;1.60;;
70228;SDS011;57617;51.988;5.854;2023-03-24T15:54:54;4.38;;;1.27;;
70228;SDS011;57617;51.988;5.854;2023-03-24T15:57:24;7.65;;;1.58;;
70228;SDS011;57617;51.988;5.854;2023-03-24T16:05:22;6.50;;;1.40;;
70228;SDS011;57617;51.988;5.854;2023-03-24T16:07:57;4.22;;;1.50;;
70228;SDS011;57617;51.988;5.854;2023-03-24T16:10:35;6.25;;;1.55;;
70228;SDS011;57617;51.988;5.854;2023-03-24T16:15:47;5.53;;;1.50;;
70228;SDS011;57617;51.988;5.854;2023-03-24T16:18:22;7.20;;;1.70;;
70228;SDS011;57617;51.988;5.854;2023-03-24T16:20:53;7.55;;;1.75;;
70228;SDS011;57617;51.988;5.854;2023-03-24T16:23:18;8.18;;;1.85;;
70228;SDS011;57617;51.988;5.854;2023-03-24T16:25:43;7.90;;;2.05;;
70228;SDS011;57617;51.988;5.854;2023-03-24T16:28:12;6.47;;;2.15;;
70228;SDS011;57617;51.988;5.854;2023-03-24T16:30:41;5.03;;;1.85;;
70228;SDS011;57617;51.988;5.854;2023-03-24T16:33:08;9.90;;;2.45;;
70228;SDS011;57617;51.988;5.854;2023-03-24T16:35:34;5.95;;;1.90;;
70228;SDS011;57617;51.988;5.854;2023-03-24T16:37:59;6.70;;;2.50;;
70228;SDS011;57617;51.988;5.854;2023-03-24T16:42:59;6.90;;;2.30;;
70228;SDS011;57617;51.988;5.854;2023-03-24T16:45:26;5.53;;;2.50;;
70228;SDS011;57617;51.988;5.854;2023-03-24T16:47:55;6.63;;;2.40;;
70228;SDS011;57617;51.988;5.854;2023-03-24T16:53:02;6.22;;;2.45;;
70228;SDS011;57617;51.988;5.854;2023-03-24T16:55:29;9.48;;;2.90;;
70228;SDS011;57617;51.988;5.854;2023-03-24T16:57:55;6.60;;;2.60;;
70228;SDS011;57617;51.988;5.854;2023-03-24T17:00:20;6.60;;;2.40;;
70228;SDS011;57617;51.988;5.854;2023-03-24T17:02:46;11.45;;;3.20;;
70228;SDS011;57617;51.988;5.854;2023-03-24T17:05:26;9.10;;;3.20;;
70228;SDS011;57617;51.988;5.854;2023-03-24T17:07:59;7.45;;;3.30;;
70228;SDS011;57617;51.988;5.854;2023-03-24T17:10:25;14.52;;;3.60;;
70228;SDS011;57617;51.988;5.854;2023-03-24T17:12:51;10.13;;;3.20;;
70228;SDS011;57617;51.988;5.854;2023-03-24T17:15:21;12.88;;;3.90;;
70228;SDS011;57617;51.988;5.854;2023-03-24T17:17:51;10.13;;;3.70;;
70228;SDS011;57617;51.988;5.854;2023-03-24T17:20:17;11.25;;;4.68;;
70228;SDS011;57617;51.988;5.854;2023-03-24T17:22:44;11.05;;;3.03;;
70228;SDS011;57617;51.988;5.854;2023-03-24T17:25:12;11.20;;;3.35;;
70228;SDS011;57617;51.988;5.854;2023-03-24T17:27:39;7.95;;;2.97;;
70228;SDS011;57617;51.988;5.854;2023-03-24T17:30:05;14.68;;;5.72;;
70228;SDS011;57617;51.988;5.854;2023-03-24T17:32:31;9.90;;;3.40;;